Time;durP1;ratioP1;P1;durP2;ratioP2;P2;SDS_P1;SDS_P2;PMS_P1;PMS_P2;Temp;Humidity;BMP_temperature;BMP_pressure;BME280_temperature;BME280_humidity;BME280_pressure;Samples;Min_cycle;Max_cycle;Signal;HPM_P1;HPM_P2
2022/11/22 00:00:21;;;;;;;6.22;3.63;;;;;;;6.34;82.92;96930.88;4970789;28;20119;-58
2022/11/22 00:02:48;;;;;;;5.32;4.00;;;;;;;6.33;82.33;96931.75;4970530;28;20050;-59
2022/11/22 00:05:14;;;;;;;4.65;3.33;;;;;;;6.32;81.83;96930.09;4968542;28;20078;-58
2022/11/22 00:07:41;;;;;;;6.07;4.68;;;;;;;6.30;81.85;96927.56;4966945;28;20395;-58
2022/11/22 00:10:10;;;;;;;6.65;4.03;;;;;;;6.27;81.21;96922.53;4968097;28;20050;-59
2022/11/22 00:12:38;;;;;;;6.07;4.32;;;;;;;6.28;81.62;96924.22;4969312;28;20134;-59
2022/11/22 00:15:06;;;;;;;4.65;3.20;;;;;;;6.28;81.93;96929.34;4965242;28;20074;-59
2022/11/22 00:17:34;;;;;;;6.28;3.55;;;;;;;6.27;82.66;96934.53;4960458;28;20050;-60
2022/11/22 00:20:00;;;;;;;5.13;3.60;;;;;;;6.23;81.66;96927.84;4965927;28;20130;-59
2022/11/22 00:22:27;;;;;;;5.13;3.30;;;;;;;6.23;82.04;96930.41;4964147;28;20130;-59
2022/11/22 00:24:53;;;;;;;5.72;3.55;;;;;;;6.23;81.31;96933.81;4965724;28;20047;-59
2022/11/22 00:27:20;;;;;;;6.20;4.30;;;;;;;6.23;81.94;96930.41;4965633;28;20137;-58
2022/11/22 00:29:47;;;;;;;7.57;4.70;;;;;;;6.22;82.23;96934.72;4965691;28;20170;-59
2022/11/22 00:32:14;;;;;;;4.68;3.42;;;;;;;6.20;82.31;96927.94;4964187;28;20129;-58
2022/11/22 00:34:40;;;;;;;6.38;4.38;;;;;;;6.16;83.22;96919.50;4965110;28;20094;-59
2022/11/22 00:37:08;;;;;;;6.30;3.97;;;;;;;6.21;82.74;96927.06;4967012;28;20126;-59
2022/11/22 00:39:34;;;;;;;7.25;3.85;;;;;;;6.20;83.04;96930.50;4969167;28;20129;-58
2022/11/22 00:42:01;;;;;;;5.53;4.18;;;;;;;6.21;82.02;96924.50;4967148;28;20062;-59
2022/11/22 00:44:28;;;;;;;5.68;3.78;;;;;;;6.20;82.80;96926.22;4965646;28;20059;-58
2022/11/22 00:46:54;;;;;;;4.95;3.53;;;;;;;6.19;82.67;96931.41;4964762;28;20133;-59
2022/11/22 00:49:21;;;;;;;6.28;2.80;;;;;;;6.19;83.24;96929.69;4967331;28;20670;-59
2022/11/22 00:51:48;;;;;;;6.10;4.00;;;;;;;6.16;81.65;96925.50;4963106;28;20046;-59
2022/11/22 00:54:15;;;;;;;4.90;3.85;;;;;;;6.15;81.77;96928.94;4966469;28;20075;-59
2022/11/22 00:56:41;;;;;;;6.78;4.85;;;;;;;6.14;82.91;96932.41;4965794;28;20051;-58
2022/11/22 00:59:08;;;;;;;5.90;3.97;;;;;;;6.16;82.42;96935.78;4965115;28;20073;-59
2022/11/22 01:01:34;;;;;;;6.78;4.15;;;;;;;6.16;83.12;96935.78;4963237;28;20078;-60
2022/11/22 01:04:01;;;;;;;6.63;3.83;;;;;;;6.17;82.54;96927.16;4963577;28;20047;-60
2022/11/22 01:06:28;;;;;;;5.38;2.42;;;;;;;6.16;82.94;96934.94;4960783;28;20726;-59
2022/11/22 01:08:54;;;;;;;5.28;3.28;;;;;;;6.15;83.45;96936.66;4965395;28;20054;-60
2022/11/22 01:11:21;;;;;;;5.18;3.42;;;;;;;6.14;83.24;96931.56;4961982;28;20046;-59
2022/11/22 01:13:48;;;;;;;7.35;4.60;;;;;;;6.14;83.34;96941.84;4963718;28;20082;-59
2022/11/22 01:16:15;;;;;;;6.00;3.72;;;;;;;6.15;81.78;96944.34;4965542;28;20129;-60
2022/11/22 01:18:42;;;;;;;7.55;4.35;;;;;;;6.14;83.23;96939.28;4965090;28;20079;-59
2022/11/22 01:21:08;;;;;;;6.65;4.10;;;;;;;6.14;82.56;96941.84;4964580;28;20093;-57
2022/11/22 01:23:36;;;;;;;6.03;4.00;;;;;;;6.15;82.45;96944.34;4965043;28;20130;-59
2022/11/22 01:26:05;;;;;;;8.95;4.82;;;;;;;6.19;82.30;96954.53;4963941;28;20046;-60
2022/11/22 01:28:31;;;;;;;8.02;5.07;;;;;;;6.19;83.03;96949.41;4965514;28;20077;-59
2022/11/22 01:30:58;;;;;;;6.93;3.90;;;;;;;6.19;82.47;96944.25;4963962;28;20055;-59
2022/11/22 01:33:24;;;;;;;7.10;4.53;;;;;;;6.19;82.08;96954.53;4962914;28;20542;-60
2022/11/22 01:35:51;;;;;;;6.07;3.88;;;;;;;6.15;83.31;96957.22;4966320;28;20109;-59
2022/11/22 01:38:18;;;;;;;6.05;4.20;;;;;;;6.13;83.37;96951.28;4964325;28;20113;-60
2022/11/22 01:40:44;;;;;;;5.80;3.47;;;;;;;6.12;83.91;96954.75;4965356;28;20125;-60
2022/11/22 01:43:16;;;;;;;7.90;4.60;;;;;;;6.16;83.18;96958.91;4965784;28;20066;-59
2022/11/22 01:45:47;;;;;;;6.35;3.78;;;;;;;6.15;82.29;96964.91;4960812;28;20508;-60
2022/11/22 01:51:19;;;;;;;7.97;1.80;;;;;;;6.16;82.93;96965.78;5057503;27;20389;-60
2022/11/22 01:53:47;;;;;;;4.63;2.15;;;;;;;6.13;83.07;96966.72;5016445;28;20497;-59
2022/11/22 01:56:18;;;;;;;7.32;2.42;;;;;;;6.16;83.21;96964.06;5012337;28;20056;-59
2022/11/22 01:58:47;;;;;;;3.03;1.38;;;;;;;6.13;83.54;96966.72;5018615;28;20041;-60
2022/11/22 02:01:14;;;;;;;4.97;2.10;;;;;;;6.14;83.56;96962.41;5013983;28;20049;-60
2022/11/22 02:03:46;;;;;;;3.80;2.05;;;;;;;6.16;83.65;96971.75;5021870;28;20099;-59
2022/11/22 02:06:13;;;;;;;4.10;1.92;;;;;;;6.18;83.58;96969.09;5016754;28;20720;-60
2022/11/22 02:11:20;;;;;;;4.45;2.13;;;;;;;6.14;82.88;96970.97;5022662;28;20414;-59
2022/11/22 02:13:50;;;;;;;4.82;2.40;;;;;;;6.16;83.76;96968.34;5023311;28;20137;-59
2022/11/22 02:16:18;;;;;;;4.22;2.05;;;;;;;6.00;83.13;96967.97;5017828;28;20135;-59
2022/11/22 02:18:45;;;;;;;4.43;2.13;;;;;;;6.07;83.36;96966.91;5021099;28;20096;-59
2022/11/22 02:21:12;;;;;;;3.97;1.50;;;;;;;6.09;82.43;96957.44;5022032;28;20077;-59
2022/11/22 02:26:14;;;;;;;5.25;2.55;;;;;;;6.08;82.73;96960.88;5003398;27;20911;-59
2022/11/22 02:28:41;;;;;;;4.20;1.88;;;;;;;6.07;82.96;96961.78;5003943;28;20068;-59
2022/11/22 02:31:08;;;;;;;5.18;2.20;;;;;;;6.09;83.30;96965.16;4999859;28;20062;-59
2022/11/22 02:33:34;;;;;;;4.88;1.55;;;;;;;6.08;83.33;96963.44;5002951;28;20047;-59
2022/11/22 02:36:02;;;;;;;5.22;2.03;;;;;;;6.05;82.61;96963.56;5004460;28;20074;-59
2022/11/22 02:38:33;;;;;;;3.33;1.40;;;;;;;6.03;83.35;96970.44;5001953;28;20589;-60
2022/11/22 02:41:07;;;;;;;4.75;1.73;;;;;;;6.07;83.00;96966.91;5001636;28;20042;-59
2022/11/22 02:43:37;;;;;;;4.45;2.28;;;;;;;6.06;82.85;96969.53;4997105;28;20513;-60
2022/11/22 02:46:08;;;;;;;6.50;1.88;;;;;;;6.07;81.52;96972.06;4998096;28;20581;-59
2022/11/22 02:48:40;;;;;;;3.17;1.67;;;;;;;6.05;83.11;96973.84;5001618;28;20041;-60
2022/11/22 02:51:07;;;;;;;5.57;2.15;;;;;;;6.04;82.48;96969.59;4997497;28;20058;-59
2022/11/22 02:53:33;;;;;;;4.60;1.80;;;;;;;6.02;81.96;96979.88;4997239;28;20096;-59
2022/11/22 02:56:00;;;;;;;4.60;2.00;;;;;;;6.05;81.67;96973.84;5000733;28;20169;-61
2022/11/22 02:58:27;;;;;;;5.22;2.53;;;;;;;6.05;82.94;96968.72;4998223;28;20516;-60
2022/11/22 03:00:54;;;;;;;6.00;2.35;;;;;;;6.06;81.63;96970.38;4997839;28;20046;-60
2022/11/22 03:03:21;;;;;;;5.38;2.83;;;;;;;6.07;82.36;96974.63;4995215;28;20065;-60
2022/11/22 03:05:48;;;;;;;5.93;2.17;;;;;;;6.05;82.80;96979.00;4997608;28;20042;-60
2022/11/22 03:08:14;;;;;;;4.75;2.10;;;;;;;6.06;82.08;96978.09;4998820;28;21777;-60
2022/11/22 03:10:41;;;;;;;5.75;2.20;;;;;;;6.07;82.89;96974.63;5004421;28;20078;-59
2022/11/22 03:13:07;;;;;;;4.32;2.15;;;;;;;6.05;83.16;96973.84;5001148;28;20129;-60
2022/11/22 03:15:34;;;;;;;5.82;1.63;;;;;;;6.04;82.34;96967.88;4999239;28;20052;-59
2022/11/22 03:18:02;;;;;;;4.90;2.17;;;;;;;6.07;83.09;96973.78;5000575;28;20562;-60
2022/11/22 03:20:31;;;;;;;5.60;2.30;;;;;;;6.07;81.98;96974.63;4999941;28;20053;-59
2022/11/22 03:22:59;;;;;;;5.45;2.03;;;;;;;6.08;82.64;96975.47;4998975;28;20169;-59
2022/11/22 03:25:26;;;;;;;5.45;2.03;;;;;;;6.06;83.04;96970.38;4999236;28;20129;-59
2022/11/22 03:27:54;;;;;;;6.10;2.25;;;;;;;6.06;82.31;96972.97;4994584;28;20145;-59
2022/11/22 03:30:20;;;;;;;5.90;2.28;;;;;;;6.06;82.23;96970.38;4999169;28;20046;-59
2022/11/22 03:32:47;;;;;;;4.93;2.08;;;;;;;6.06;81.70;96975.53;4996313;28;20557;-59
2022/11/22 03:35:14;;;;;;;5.15;2.30;;;;;;;6.06;81.55;96974.66;5000836;28;20147;-59
2022/11/22 03:37:40;;;;;;;4.55;1.98;;;;;;;6.04;82.88;96982.44;4985584;28;20762;-59
2022/11/22 03:40:07;;;;;;;6.28;2.20;;;;;;;6.05;82.74;96973.84;4985283;28;20132;-59
2022/11/22 03:42:34;;;;;;;7.05;2.45;;;;;;;6.05;82.42;96984.13;4981408;28;20047;-59
2022/11/22 03:45:01;;;;;;;6.40;2.00;;;;;;;6.05;81.51;96984.13;4987450;28;20128;-59
2022/11/22 03:47:27;;;;;;;7.35;2.50;;;;;;;6.05;81.98;96981.56;4982801;28;20077;-59
2022/11/22 03:49:54;;;;;;;5.28;2.15;;;;;;;6.03;81.87;96975.59;4984851;28;20101;-59
2022/11/22 03:52:20;;;;;;;6.28;2.50;;;;;;;6.04;81.57;96977.28;4986225;28;20133;-59
2022/11/22 03:54:47;;;;;;;4.47;2.22;;;;;;;6.01;81.69;96974.81;4987194;28;20034;-59
2022/11/22 03:57:15;;;;;;;5.63;2.40;;;;;;;6.04;83.12;96977.28;4985675;28;20137;-58
2022/11/22 03:59:42;;;;;;;6.60;2.97;;;;;;;6.04;81.76;96983.28;4986916;28;20066;-59
2022/11/22 04:02:08;;;;;;;6.78;2.45;;;;;;;6.00;82.36;96980.81;4988477;28;20050;-58
2022/11/22 04:04:35;;;;;;;6.60;1.95;;;;;;;6.00;82.96;96971.41;4983957;28;20085;-59
2022/11/22 04:07:02;;;;;;;4.90;2.00;;;;;;;6.02;82.60;96979.06;4983283;28;20094;-59
2022/11/22 04:09:28;;;;;;;5.75;2.33;;;;;;;6.02;81.75;96973.91;4986901;28;20125;-60
2022/11/22 04:11:55;;;;;;;5.13;2.55;;;;;;;6.01;82.05;96969.69;4986138;28;20434;-59
2022/11/22 04:17:13;;;;;;;4.72;1.75;;;;;;;5.99;83.00;96984.28;4986602;28;20779;-59
2022/11/22 04:21:32;;;;;;;6.88;2.25;;;;;;;5.98;82.07;96983.44;4987437;28;20050;-60
2022/11/22 04:22:26;;;;;;;5.00;2.20;;;;;;;5.98;83.54;96982.63;4981724;28;20459;-59
2022/11/22 04:27:39;;;;;;;3.58;1.98;;;;;;;5.98;82.35;96977.50;4982198;28;20145;-59
2022/11/22 04:30:06;;;;;;;5.10;1.95;;;;;;;5.99;82.14;96979.16;4983442;28;20058;-57
2022/11/22 04:32:48;;;;;;;3.05;1.77;;;;;;;5.95;83.35;96981.00;4984879;28;20072;-60
2022/11/22 04:35:17;;;;;;;8.18;2.95;;;;;;;5.98;81.88;96980.06;4982135;28;20066;-60
2022/11/22 04:37:50;;;;;;;5.40;2.33;;;;;;;5.96;81.82;96977.53;4982973;28;20046;-59
2022/11/22 04:40:16;;;;;;;5.43;2.28;;;;;;;5.94;82.97;96983.63;4983021;28;20414;-59
2022/11/22 04:45:29;;;;;;;5.20;2.42;;;;;;;5.92;82.73;96991.38;4981830;28;20054;-59
2022/11/22 04:47:59;;;;;;;3.97;1.90;;;;;;;5.90;81.90;96996.56;4982444;28;20050;-60
2022/11/22 04:53:16;;;;;;;4.65;1.83;;;;;;;5.86;83.30;96989.84;4983769;28;20042;-60
2022/11/22 04:55:45;;;;;;;4.10;1.55;;;;;;;5.90;82.41;97000.84;4983909;28;20454;-60
2022/11/22 04:58:12;;;;;;;6.57;2.00;;;;;;;5.91;81.77;96998.22;4980542;28;20137;-59
2022/11/22 05:00:39;;;;;;;6.18;2.67;;;;;;;5.92;82.53;96996.50;4981240;28;20077;-59
2022/11/22 05:03:06;;;;;;;5.47;2.15;;;;;;;5.94;82.63;97001.59;4982151;28;20050;-60
2022/11/22 05:05:37;;;;;;;5.45;2.15;;;;;;;5.95;81.97;97000.69;4979429;28;20582;-60
2022/11/22 05:08:04;;;;;;;6.15;2.15;;;;;;;5.95;81.81;97000.69;4983766;28;20171;-61
2022/11/22 05:10:55;;;;;;;5.00;2.05;;;;;;;5.94;83.38;97004.16;4983644;28;20089;-59
2022/11/22 05:13:20;;;;;;;7.57;2.53;;;;;;;5.96;83.37;97015.22;4980015;28;20097;-60
2022/11/22 05:15:50;;;;;;;8.52;2.70;;;;;;;5.94;83.40;97019.59;4984579;28;20089;-60
2022/11/22 05:18:18;;;;;;;7.38;2.63;;;;;;;5.96;82.16;97022.94;4982954;28;20043;-59
2022/11/22 05:20:45;;;;;;;7.80;3.13;;;;;;;5.98;83.54;97029.69;4982414;28;20140;-60
2022/11/22 05:26:00;;;;;;;5.32;2.50;;;;;;;5.98;82.07;97026.31;4982944;28;20042;-59
2022/11/22 05:28:29;;;;;;;5.10;2.20;;;;;;;5.96;81.90;97025.50;4985387;28;20109;-59
2022/11/22 05:30:55;;;;;;;9.20;3.35;;;;;;;5.97;82.81;97027.16;4983814;28;20494;-59
2022/11/22 05:33:22;;;;;;;7.18;2.53;;;;;;;5.97;83.40;97033.16;4980262;28;20129;-60
2022/11/22 05:35:49;;;;;;;7.75;2.80;;;;;;;5.98;82.38;97034.81;4985335;28;20054;-59
2022/11/22 05:38:16;;;;;;;7.90;3.38;;;;;;;5.99;82.89;97035.69;4984319;28;20043;-60
2022/11/22 05:40:42;;;;;;;7.65;3.20;;;;;;;6.01;82.81;97033.91;4984437;28;20406;-60
2022/11/22 05:43:09;;;;;;;8.70;3.15;;;;;;;6.02;82.66;97038.16;4984325;28;20506;-60
2022/11/22 05:45:36;;;;;;;6.47;2.42;;;;;;;6.03;83.23;97047.53;4980573;28;20057;-61
2022/11/22 05:48:02;;;;;;;8.30;3.22;;;;;;;6.03;83.31;97037.25;4984158;28;20560;-60
2022/11/22 05:50:29;;;;;;;7.25;3.50;;;;;;;6.03;82.55;97042.41;4981341;28;20062;-59
2022/11/22 05:52:59;;;;;;;12.38;3.45;;;;;;;6.04;83.07;97039.81;4983970;28;20446;-59
2022/11/22 05:55:26;;;;;;;8.75;3.40;;;;;;;6.03;83.22;97040.72;4985422;28;20112;-59
2022/11/22 05:57:53;;;;;;;8.43;3.05;;;;;;;6.03;81.88;97042.41;4985374;28;20136;-60
2022/11/22 06:00:20;;;;;;;7.60;3.13;;;;;;;6.04;82.67;97057.78;4983811;28;20078;-60
2022/11/22 06:02:46;;;;;;;8.70;3.38;;;;;;;6.05;82.97;97053.50;4983855;28;20109;-59
2022/11/22 06:05:13;;;;;;;11.80;3.95;;;;;;;6.03;81.88;97047.53;4986474;28;20077;-61
2022/11/22 06:07:39;;;;;;;9.13;3.78;;;;;;;6.03;83.14;97050.09;4984763;28;20125;-59
2022/11/22 06:10:07;;;;;;;10.38;3.75;;;;;;;6.04;82.50;97054.38;4983857;28;20137;-60
2022/11/22 06:12:34;;;;;;;8.55;3.83;;;;;;;6.04;83.41;97054.38;4986926;28;20047;-60
2022/11/22 06:15:00;;;;;;;11.00;3.53;;;;;;;6.05;83.02;97056.06;4983634;28;20046;-60
2022/11/22 06:17:27;;;;;;;10.52;4.53;;;;;;;6.05;81.94;97058.66;4988337;28;20134;-60
2022/11/22 06:19:53;;;;;;;9.65;3.30;;;;;;;6.04;82.94;97051.81;4983603;28;20054;-60
2022/11/22 06:22:20;;;;;;;9.48;3.70;;;;;;;6.04;82.23;97059.50;4982009;28;20125;-60
2022/11/22 06:24:47;;;;;;;8.95;3.90;;;;;;;6.02;82.49;97056.13;4982067;28;20133;-60
2022/11/22 06:27:13;;;;;;;6.32;2.60;;;;;;;6.02;82.42;97066.41;4983328;28;20455;-59
2022/11/22 06:29:41;;;;;;;11.45;4.30;;;;;;;6.02;82.69;97061.28;4983131;28;20434;-60
2022/11/22 06:32:08;;;;;;;13.13;4.45;;;;;;;6.02;83.67;97064.66;4980047;28;20050;-59
2022/11/22 06:34:34;;;;;;;11.23;4.47;;;;;;;6.07;83.05;97058.56;4978350;28;20038;-60
2022/11/22 06:37:01;;;;;;;12.43;4.53;;;;;;;6.07;82.90;97064.56;4981221;28;20065;-60
2022/11/22 06:39:27;;;;;;;12.10;4.07;;;;;;;6.07;83.35;97069.69;4981425;28;20093;-60
2022/11/22 06:41:55;;;;;;;11.00;3.53;;;;;;;6.06;82.94;97070.59;4983256;28;20050;-59
2022/11/22 06:44:21;;;;;;;13.85;5.05;;;;;;;6.06;83.83;97075.72;4982447;28;20101;-60
2022/11/22 06:46:48;;;;;;;13.98;5.22;;;;;;;6.08;82.92;97071.38;4978077;28;20414;-60
2022/11/22 06:49:14;;;;;;;11.43;4.95;;;;;;;6.06;82.52;97078.31;4980339;28;20132;-60
2022/11/22 06:51:41;;;;;;;11.95;4.78;;;;;;;6.08;83.93;97080.81;4983407;28;20046;-60
2022/11/22 06:54:09;;;;;;;12.68;5.07;;;;;;;6.09;83.57;97088.50;4975557;28;20140;-60
2022/11/22 06:56:38;;;;;;;11.10;3.75;;;;;;;6.09;83.35;97077.34;4982449;28;20517;-60
2022/11/22 06:59:06;;;;;;;13.57;4.65;;;;;;;6.11;82.62;97080.72;4981413;28;20047;-60
2022/11/22 07:01:33;;;;;;;12.63;4.80;;;;;;;6.12;83.76;97085.78;4981053;28;20042;-61
2022/11/22 07:04:01;;;;;;;11.25;4.32;;;;;;;6.12;83.80;97092.69;4982728;28;20042;-60
2022/11/22 07:06:31;;;;;;;14.00;4.95;;;;;;;6.11;83.63;97091.00;4980725;28;21024;-60
2022/11/22 07:08:58;;;;;;;;;;;;;;;6.06;82.39;97092.88;4976771;28;20101;-60
2022/11/22 07:11:27;;;;;;;14.45;4.82;;;;;;;6.10;83.08;97097.88;4985735;28;19953;-60
2022/11/22 07:13:56;;;;;;;14.98;5.85;;;;;;;6.12;83.46;97098.66;4986108;28;20490;-61
2022/11/22 07:16:32;;;;;;;12.63;4.82;;;;;;;6.11;84.01;97106.44;4981486;28;20414;-60
2022/11/22 07:18:59;;;;;;;18.23;5.57;;;;;;;6.13;82.76;97104.63;4984494;28;20050;-60
2022/11/22 07:21:26;;;;;;;12.40;5.22;;;;;;;6.11;83.02;97112.38;4985965;28;20049;-61
2022/11/22 07:23:54;;;;;;;15.50;6.00;;;;;;;6.15;83.48;97111.41;4981294;28;20625;-60
2022/11/22 07:26:24;;;;;;;15.55;7.85;;;;;;;6.16;82.25;97114.81;4983594;28;20067;-61
2022/11/22 07:28:51;;;;;;;13.27;5.15;;;;;;;6.15;83.81;97124.25;4985593;28;20141;-60
2022/11/22 07:31:18;;;;;;;19.42;6.53;;;;;;;6.17;83.43;97121.63;4984625;28;20042;-61
2022/11/22 07:33:45;;;;;;;13.55;5.30;;;;;;;6.19;83.32;97126.72;4985548;28;20046;-60
2022/11/22 07:38:48;;;;;;;16.42;7.03;;;;;;;6.22;82.36;97129.22;5061797;28;20407;-60
2022/11/22 07:41:16;;;;;;;12.27;4.82;;;;;;;6.20;82.93;97133.53;5036539;28;20041;-61
2022/11/22 07:43:44;;;;;;;16.65;7.20;;;;;;;6.19;84.02;97134.44;5034229;28;20506;-60
2022/11/22 07:46:20;;;;;;;14.48;5.85;;;;;;;6.21;82.25;97132.69;5031358;28;20041;-60
2022/11/22 07:48:48;;;;;;;16.65;6.53;;;;;;;6.22;82.93;97135.19;5035221;28;20107;-59
2022/11/22 07:51:15;;;;;;;15.00;6.18;;;;;;;6.23;84.13;97141.16;5032704;28;20426;-60
2022/11/22 07:53:42;;;;;;;11.68;4.38;;;;;;;6.23;82.31;97141.16;5031424;28;20049;-61
2022/11/22 07:56:09;;;;;;;15.30;5.10;;;;;;;6.24;82.80;97142.84;5034321;28;20127;-60
2022/11/22 07:58:36;;;;;;;16.70;5.78;;;;;;;6.23;83.73;97138.59;5035223;28;20132;-60
2022/11/22 08:01:07;;;;;;;16.27;6.72;;;;;;;6.27;83.84;97150.44;5028553;28;20079;-59
2022/11/22 08:03:35;;;;;;;14.02;5.57;;;;;;;6.30;83.88;97152.94;5033839;28;20069;-60
2022/11/22 08:06:04;;;;;;;19.70;5.90;;;;;;;6.29;83.60;97141.78;5035050;28;20140;-59
2022/11/22 08:08:31;;;;;;;17.30;5.93;;;;;;;6.32;84.12;97146.03;5034576;28;20217;-59
2022/11/22 08:10:58;;;;;;;19.88;7.35;;;;;;;6.34;83.89;97151.94;5037601;28;20460;-61
2022/11/22 08:13:25;;;;;;;16.60;6.03;;;;;;;6.33;83.12;97155.41;5033296;28;20096;-59
2022/11/22 08:15:53;;;;;;;12.02;5.22;;;;;;;6.35;83.38;97160.50;5027446;28;20045;-59
2022/11/22 08:18:21;;;;;;;19.75;7.65;;;;;;;6.38;82.49;97158.66;5027600;28;20061;-61
2022/11/22 08:20:48;;;;;;;17.13;5.82;;;;;;;6.40;84.10;97164.59;5037113;28;20073;-59
2022/11/22 08:23:14;;;;;;;17.98;7.68;;;;;;;6.46;83.25;97165.28;5032477;28;20441;-60
2022/11/22 08:25:41;;;;;;;17.35;7.13;;;;;;;6.46;83.16;97167.84;5035928;28;20393;-59
2022/11/22 08:28:08;;;;;;;17.42;6.43;;;;;;;6.48;83.74;97172.06;5033763;28;20579;-60
2022/11/22 08:30:34;;;;;;;21.00;6.75;;;;;;;6.53;83.33;97171.91;5031346;28;20134;-60
2022/11/22 08:33:01;;;;;;;18.80;6.30;;;;;;;6.55;83.72;97172.69;5035639;28;20092;-60
2022/11/22 08:35:27;;;;;;;20.80;6.57;;;;;;;6.58;83.36;97171.78;5031799;28;20056;-59
2022/11/22 08:37:56;;;;;;;24.23;8.02;;;;;;;6.61;83.29;97181.94;5030463;28;20456;-60
2022/11/22 08:40:23;;;;;;;15.68;5.43;;;;;;;6.62;82.46;97179.31;5035065;28;20144;-59
2022/11/22 08:42:53;;;;;;;16.60;6.63;;;;;;;6.64;83.71;97182.69;5036565;28;20119;-59
2022/11/22 08:45:19;;;;;;;20.33;7.50;;;;;;;6.66;84.33;97186.03;5004167;28;20053;-60
2022/11/22 08:47:47;;;;;;;24.20;8.65;;;;;;;6.68;83.16;97189.41;5029605;28;20136;-60
2022/11/22 08:50:16;;;;;;;24.55;8.27;;;;;;;6.75;83.27;97194.38;5016741;28;20127;-60
2022/11/22 08:52:43;;;;;;;14.18;4.75;;;;;;;6.76;83.08;97196.88;5013526;28;20152;-60
2022/11/22 08:55:09;;;;;;;21.35;6.97;;;;;;;6.82;83.37;97200.97;5023328;28;20133;-59
2022/11/22 08:57:36;;;;;;;25.35;7.38;;;;;;;6.86;83.30;97199.97;5021725;28;20115;-60
2022/11/22 09:00:05;;;;;;;23.40;7.55;;;;;;;6.88;82.50;97200.78;5018546;28;20042;-59
2022/11/22 09:02:31;;;;;;;20.30;6.63;;;;;;;6.92;83.45;97201.50;5020417;28;20107;-60
2022/11/22 09:04:58;;;;;;;20.33;8.07;;;;;;;6.90;82.90;97193.84;5015694;28;20053;-60
2022/11/22 09:07:25;;;;;;;17.75;7.10;;;;;;;6.89;83.77;97197.28;5021278;28;20053;-60
2022/11/22 09:10:11;;;;;;;23.63;7.10;;;;;;;6.91;82.87;97205.81;5017973;28;20052;-59
2022/11/22 09:12:42;;;;;;;22.25;7.80;;;;;;;6.89;83.57;97212.72;5018014;28;20444;-59
2022/11/22 09:15:09;;;;;;;13.50;5.38;;;;;;;6.85;84.03;97216.31;5018563;28;20099;-60
2022/11/22 09:17:36;;;;;;;13.70;5.47;;;;;;;6.88;82.85;97218.78;5019399;28;20103;-60
2022/11/22 09:20:03;;;;;;;16.50;6.30;;;;;;;6.89;84.07;97223.03;5010677;28;20080;-59
2022/11/22 09:22:30;;;;;;;11.68;4.32;;;;;;;6.88;82.67;97220.50;5015362;28;20077;-60
2022/11/22 09:24:57;;;;;;;8.18;3.60;;;;;;;6.84;83.04;97219.78;5021725;28;20076;-60
2022/11/22 09:27:24;;;;;;;22.63;8.20;;;;;;;6.91;82.39;97222.97;5026034;28;20068;-59
2022/11/22 09:29:50;;;;;;;26.13;9.23;;;;;;;6.93;83.09;97229.75;5017330;28;20053;-59
2022/11/22 09:32:17;;;;;;;16.15;6.95;;;;;;;6.97;82.47;97230.50;5019076;28;20099;-60
2022/11/22 09:34:43;;;;;;;18.80;5.40;;;;;;;7.02;82.79;97232.91;5024521;28;20073;-60
2022/11/22 09:37:10;;;;;;;17.35;6.15;;;;;;;7.04;84.17;97236.28;5023627;28;20080;-60
2022/11/22 09:39:37;;;;;;;15.70;5.65;;;;;;;7.02;83.14;97238.06;5021314;28;20137;-60
2022/11/22 09:53:03;;;;;;;21.02;6.55;;;;;;;7.25;83.11;97251.88;5057580;28;20399;-60
2022/11/22 09:55:37;;;;;;;18.25;6.35;;;;;;;7.25;83.69;97255.31;5036440;28;20048;-57
2022/11/22 09:58:35;;;;;;;20.95;6.65;;;;;;;7.24;83.18;97258.78;5043409;28;20045;-60
2022/11/22 10:01:11;;;;;;;12.70;5.05;;;;;;;7.27;84.12;97257.81;5037135;28;20049;-61
2022/11/22 10:06:28;;;;;;;21.35;7.18;;;;;;;7.35;83.31;97255.81;5039004;27;20751;-60
2022/11/22 10:09:21;;;;;;;20.75;8.88;;;;;;;7.38;83.40;97260.88;5021886;28;20497;-61
2022/11/22 10:12:01;;;;;;;21.85;8.70;;;;;;;7.44;84.11;97270.94;5020021;28;20593;-61
2022/11/22 10:14:55;;;;;;;18.75;7.85;;;;;;;7.46;83.84;97266.59;5020901;28;20132;-61
2022/11/22 10:17:34;;;;;;;19.60;7.90;;;;;;;7.49;82.63;97268.22;5019513;28;20069;-57
2022/11/22 10:20:10;;;;;;;26.33;9.20;;;;;;;7.55;82.58;97269.75;5018624;28;20041;-54
2022/11/22 10:22:38;;;;;;;20.95;7.95;;;;;;;7.59;82.64;97266.16;5023143;28;20049;-58
2022/11/22 10:25:21;;;;;;;20.60;7.25;;;;;;;7.63;82.48;97274.63;5016575;28;20070;-55
2022/11/22 10:27:53;;;;;;;16.85;7.20;;;;;;;7.67;83.57;97282.19;5022118;28;20049;-56
2022/11/22 10:30:33;;;;;;;14.35;5.50;;;;;;;7.65;83.25;97294.28;5017334;28;20045;-58
2022/11/22 10:33:14;;;;;;;16.13;6.93;;;;;;;7.64;83.08;97279.72;5017887;28;20045;-58
2022/11/22 10:36:01;;;;;;;16.63;6.00;;;;;;;7.63;83.01;97284.94;5018561;28;20054;-58
2022/11/22 10:39:07;;;;;;;16.60;6.72;;;;;;;7.67;82.64;97291.66;5020645;28;20088;-56
2022/11/22 11:00:33;;;;;;;14.75;5.50;;;;;;;8.14;82.55;97285.66;5015089;28;20422;-55
2022/11/22 11:03:26;;;;;;;9.55;3.50;;;;;;;8.11;82.31;97290.94;4980955;28;20066;-56
2022/11/22 11:08:47;;;;;;;14.15;6.30;;;;;;;8.13;81.96;97299.44;5046568;27;20894;-57
2022/11/22 11:11:37;;;;;;;19.10;6.45;;;;;;;8.15;83.03;97302.81;5016394;28;20524;-54
2022/11/22 11:14:12;;;;;;;14.68;6.55;;;;;;;8.18;82.63;97300.09;5024337;28;20378;-58
2022/11/22 11:16:39;;;;;;;16.08;7.47;;;;;;;8.19;82.65;97306.13;5018941;28;20042;-57
2022/11/22 11:19:18;;;;;;;19.60;7.13;;;;;;;8.20;82.66;97298.31;5022019;28;20069;-52
2022/11/22 11:21:52;;;;;;;16.80;6.35;;;;;;;8.25;83.07;97302.47;5017143;28;20709;-58
2022/11/22 11:24:18;;;;;;;20.30;7.35;;;;;;;8.26;82.99;97304.13;5020828;28;20076;-58
2022/11/22 11:26:53;;;;;;;20.02;7.65;;;;;;;8.28;82.37;97313.50;5020975;28;20073;-54
2022/11/22 11:32:18;;;;;;;24.98;7.22;;;;;;;8.32;82.53;97319.41;5037916;27;20396;-58
2022/11/22 11:35:04;;;;;;;26.55;7.45;;;;;;;8.35;82.48;97312.38;5037992;28;20444;-53
2022/11/22 11:40:28;;;;;;;40.63;11.07;;;;;;;8.65;82.02;97315.63;5023846;27;20414;-56
2022/11/22 11:45:46;;;;;;;22.77;8.73;;;;;;;8.53;82.77;97322.94;5015250;28;20423;-60
2022/11/22 11:48:36;;;;;;;20.17;6.45;;;;;;;8.52;82.93;97317.78;5000564;28;20046;-57
2022/11/22 11:51:14;;;;;;;15.95;5.05;;;;;;;8.58;82.44;97323.59;4997441;28;20146;-55
2022/11/22 11:53:50;;;;;;;23.10;6.43;;;;;;;8.59;82.04;97316.69;4998977;28;20058;-56
2022/11/22 11:56:20;;;;;;;14.00;6.00;;;;;;;8.64;82.74;97325.09;5000117;28;20132;-55
2022/11/22 11:58:52;;;;;;;;;;;;;;;8.54;82.59;97318.63;5004295;28;20058;-57
2022/11/22 12:01:19;;;;;;;13.15;5.30;;;;;;;8.59;82.69;97316.69;4999066;28;19925;-54
2022/11/22 12:03:53;;;;;;;16.00;5.30;;;;;;;8.61;82.23;97323.47;4998419;28;20042;-58
2022/11/22 12:06:19;;;;;;;11.73;5.13;;;;;;;8.63;81.84;97322.56;4999573;28;20061;-54
2022/11/22 12:08:46;;;;;;;17.85;6.22;;;;;;;8.64;81.86;97319.09;4998942;28;20100;-55
2022/11/22 12:11:22;;;;;;;14.88;5.78;;;;;;;8.67;82.41;97324.97;5002266;28;20050;-56
2022/11/22 12:13:55;;;;;;;13.80;4.85;;;;;;;8.66;82.03;97327.63;4999911;28;20548;-57
2022/11/22 12:16:46;;;;;;;15.68;4.93;;;;;;;8.67;81.89;97335.28;4999871;28;20133;-54
2022/11/22 12:27:25;;;;;;;14.45;5.78;;;;;;;8.63;82.09;97354.38;5057580;28;20414;-55
2022/11/22 12:29:52;;;;;;;13.30;5.80;;;;;;;8.60;81.78;97367.38;5058253;28;20069;-56
2022/11/22 12:35:11;;;;;;;15.57;5.78;;;;;;;8.52;81.55;97377.13;5059557;28;20414;-52
2022/11/22 12:37:47;;;;;;;11.68;4.45;;;;;;;8.54;81.61;97380.53;5041448;28;20044;-52
2022/11/22 12:40:18;;;;;;;8.25;3.92;;;;;;;8.49;81.43;97378.09;5043159;28;20702;-53
2022/11/22 12:42:52;;;;;;;12.98;6.13;;;;;;;8.54;81.35;97377.97;5035430;28;20163;-53
2022/11/22 12:45:29;;;;;;;13.15;6.50;;;;;;;8.58;81.59;97382.94;5035614;28;20049;-55
2022/11/22 12:48:02;;;;;;;10.57;3.40;;;;;;;8.61;81.77;97389.69;5038344;28;20108;-55
2022/11/22 12:50:37;;;;;;;13.35;5.05;;;;;;;8.62;81.33;97383.66;5040901;28;20428;-52
2022/11/22 12:53:13;;;;;;;10.02;3.38;;;;;;;8.61;80.69;97381.97;5036001;28;20130;-57
2022/11/22 12:55:48;;;;;;;13.05;5.03;;;;;;;8.69;81.39;97387.69;5032245;28;20103;-56
2022/11/22 12:58:23;;;;;;;15.35;6.85;;;;;;;8.74;81.50;97397.81;5030799;28;20045;-52
2022/11/22 13:01:17;;;;;;;16.05;5.95;;;;;;;8.74;81.63;97396.09;5042449;28;20057;-56
2022/11/22 13:06:26;;;;;;;11.98;4.45;;;;;;;8.80;81.01;97409.66;5071424;27;20403;-56
2022/11/22 13:09:01;;;;;;;10.57;5.13;;;;;;;8.77;81.55;97404.59;5063837;28;20431;-49
2022/11/22 13:11:36;;;;;;;16.48;5.63;;;;;;;8.78;81.25;97409.72;5081148;28;20571;-54